Time;durP1;ratioP1;P1;durP2;ratioP2;P2;SDS_P1;SDS_P2;PMS_P1;PMS_P2;Temp;Humidity;BMP_temperature;BMP_pressure;BME280_temperature;BME280_humidity;BME280_pressure;Samples;Min_cycle;Max_cycle;Signal;HPM_P1;HPM_P2
2023/09/18 00:01:55;;;;;;;5.23;4.37;;;17.00;99.90;;;;;;4969774;28;20206;-58
2023/09/18 00:04:21;;;;;;;4.70;3.30;;;17.00;99.90;;;;;;4962460;28;20186;-57
2023/09/18 00:06:46;;;;;;;8.77;3.67;;;17.00;99.90;;;;;;4968885;28;20237;-57
2023/09/18 00:09:13;;;;;;;4.53;3.17;;;17.00;99.90;;;;;;4965506;28;20269;-58
2023/09/18 00:11:39;;;;;;;8.53;3.80;;;17.10;99.90;;;;;;4970433;28;20170;-58
2023/09/18 00:14:05;;;;;;;7.20;4.03;;;17.20;99.90;;;;;;4969112;28;20437;-58
2023/09/18 00:16:32;;;;;;;4.23;3.57;;;17.20;99.90;;;;;;4967749;28;20440;-58
2023/09/18 00:18:58;;;;;;;8.50;4.50;;;17.30;99.90;;;;;;4966451;28;20186;-58
2023/09/18 00:21:25;;;;;;;8.70;4.20;;;17.30;99.90;;;;;;4968606;28;20433;-58
2023/09/18 00:23:51;;;;;;;8.73;4.30;;;17.30;99.90;;;;;;4969683;28;20236;-59
2023/09/18 00:26:17;;;;;;;5.53;3.53;;;17.30;99.90;;;;;;4966178;28;20458;-58
2023/09/18 00:28:42;;;;;;;8.80;4.10;;;17.30;99.90;;;;;;4969023;28;20797;-58
2023/09/18 00:31:08;;;;;;;7.83;3.83;;;17.20;99.90;;;;;;4969041;28;20691;-58
2023/09/18 00:33:34;;;;;;;6.47;4.00;;;17.10;99.90;;;;;;4970223;28;20255;-58
2023/09/18 00:35:59;;;;;;;5.80;3.37;;;17.10;99.90;;;;;;4972656;28;20182;-58
2023/09/18 00:38:25;;;;;;;8.40;3.93;;;17.00;99.90;;;;;;4969970;28;20445;-58
2023/09/18 00:40:51;;;;;;;7.97;4.47;;;17.00;99.90;;;;;;4969445;28;20320;-58
2023/09/18 00:43:17;;;;;;;10.50;3.90;;;17.00;99.90;;;;;;4968771;28;20238;-58
2023/09/18 00:45:45;;;;;;;7.63;4.20;;;17.00;99.90;;;;;;4969517;28;20190;-59
2023/09/18 00:48:11;;;;;;;5.53;4.33;;;17.00;99.90;;;;;;4965383;28;20527;-58
2023/09/18 00:50:38;;;;;;;6.70;4.13;;;17.00;99.90;;;;;;4971128;28;20432;-58
2023/09/18 00:53:05;;;;;;;7.73;4.30;;;16.90;99.90;;;;;;4965000;28;20449;-58
2023/09/18 00:55:32;;;;;;;6.70;4.03;;;16.90;99.90;;;;;;4970643;28;20457;-57
2023/09/18 00:57:58;;;;;;;7.90;4.70;;;16.90;99.90;;;;;;4970129;28;20444;-58
2023/09/18 01:00:23;;;;;;;5.80;4.27;;;16.90;99.90;;;;;;4968941;28;20503;-58
2023/09/18 01:02:49;;;;;;;5.30;4.00;;;16.90;99.90;;;;;;4960373;28;20971;-58
2023/09/18 01:05:19;;;;;;;7.23;4.40;;;16.90;99.90;;;;;;4945783;28;20192;-58
2023/09/18 01:07:46;;;;;;;10.33;4.30;;;16.80;99.90;;;;;;4954993;28;20946;-58
2023/09/18 01:10:16;;;;;;;11.17;4.43;;;16.90;99.90;;;;;;4958158;28;21134;-58
2023/09/18 01:12:55;;;;;;;13.53;5.07;;;16.90;99.90;;;;;;4951841;28;20467;-58
2023/09/18 01:15:47;;;;;;;8.23;4.63;;;16.80;99.90;;;;;;4950485;28;20437;-59
2023/09/18 01:18:13;;;;;;;6.10;4.50;;;16.80;99.90;;;;;;4947683;28;20480;-58
2023/09/18 01:20:39;;;;;;;10.10;4.63;;;16.80;99.90;;;;;;4951694;28;20535;-58
2023/09/18 01:23:05;;;;;;;8.67;4.70;;;16.80;99.90;;;;;;4951205;28;20819;-59
2023/09/18 01:25:34;;;;;;;6.73;5.07;;;16.80;99.90;;;;;;4954833;28;20188;-57
2023/09/18 01:28:00;;;;;;;4.77;3.90;;;16.80;99.90;;;;;;4951720;28;20209;-58
2023/09/18 01:30:25;;;;;;;9.10;4.70;;;16.80;99.90;;;;;;4951529;28;20440;-58
2023/09/18 01:32:53;;;;;;;5.83;4.20;;;16.80;99.90;;;;;;4946118;28;20991;-58
2023/09/18 01:35:20;;;;;;;8.20;4.50;;;16.80;99.90;;;;;;4952838;28;20268;-58
2023/09/18 01:37:46;;;;;;;6.30;4.37;;;16.80;99.90;;;;;;4951248;28;20532;-58
2023/09/18 01:40:11;;;;;;;6.23;4.57;;;16.80;99.90;;;;;;4956349;28;20445;-58
2023/09/18 01:42:37;;;;;;;14.70;5.73;;;16.70;99.90;;;;;;4946589;28;20697;-59
2023/09/18 01:45:05;;;;;;;14.20;4.50;;;16.70;99.90;;;;;;4956070;28;20240;-58
2023/09/18 01:47:30;;;;;;;11.10;4.30;;;16.70;99.90;;;;;;4949298;28;20460;-58
2023/09/18 01:49:56;;;;;;;11.47;4.50;;;16.80;99.90;;;;;;4944817;28;20463;-58
2023/09/18 01:52:22;;;;;;;5.97;4.50;;;16.80;99.90;;;;;;4949217;28;20217;-58
2023/09/18 01:54:48;;;;;;;4.33;3.90;;;16.80;99.90;;;;;;4952637;28;20608;-58
2023/09/18 01:57:14;;;;;;;6.57;4.53;;;16.70;99.90;;;;;;4951099;28;20602;-59
2023/09/18 01:59:41;;;;;;;12.00;5.00;;;16.70;99.90;;;;;;4950518;28;20436;-59
2023/09/18 02:02:08;;;;;;;10.10;4.77;;;16.70;99.90;;;;;;4948807;28;20209;-58
2023/09/18 02:04:34;;;;;;;6.80;4.20;;;16.70;99.90;;;;;;4950414;28;20461;-59
2023/09/18 02:06:59;;;;;;;10.20;4.67;;;16.70;99.90;;;;;;4964379;28;20469;-59
2023/09/18 02:09:25;;;;;;;7.17;4.80;;;16.70;99.90;;;;;;4953616;28;20181;-58
2023/09/18 02:11:51;;;;;;;8.23;4.00;;;16.80;99.90;;;;;;4956543;28;20293;-59
2023/09/18 02:14:16;;;;;;;4.80;4.30;;;16.80;99.90;;;;;;4948262;28;20568;-57
2023/09/18 02:16:43;;;;;;;5.80;4.60;;;16.80;99.90;;;;;;4951929;28;20723;-58
2023/09/18 02:19:09;;;;;;;7.03;4.57;;;16.80;99.90;;;;;;4950177;28;20315;-58
2023/09/18 02:21:36;;;;;;;6.40;4.63;;;16.80;99.90;;;;;;4948554;28;20979;-58
2023/09/18 02:24:02;;;;;;;8.20;5.20;;;16.90;99.90;;;;;;4944531;28;20445;-58
2023/09/18 02:26:28;;;;;;;9.23;5.03;;;16.90;99.90;;;;;;4954280;28;20435;-59
2023/09/18 02:28:54;;;;;;;5.30;4.70;;;16.90;99.90;;;;;;4952897;28;20196;-58
2023/09/18 02:31:20;;;;;;;9.50;4.77;;;16.90;99.90;;;;;;4949204;28;20292;-57
2023/09/18 02:33:46;;;;;;;11.73;5.10;;;16.80;99.90;;;;;;4950968;28;20461;-58
2023/09/18 02:36:12;;;;;;;4.20;3.80;;;16.80;99.90;;;;;;4948802;28;20777;-58
2023/09/18 02:38:38;;;;;;;4.97;4.40;;;16.80;99.90;;;;;;4949639;28;20445;-58
2023/09/18 02:41:04;;;;;;;12.60;4.73;;;16.80;99.90;;;;;;4954020;28;20445;-59
2023/09/18 02:43:29;;;;;;;6.40;4.70;;;16.70;99.90;;;;;;4952802;28;20622;-58
2023/09/18 02:45:55;;;;;;;9.47;4.20;;;16.70;99.90;;;;;;4960577;28;20326;-58
2023/09/18 02:48:20;;;;;;;7.03;4.73;;;16.70;99.90;;;;;;4949324;28;20708;-58
2023/09/18 02:50:46;;;;;;;8.60;4.47;;;16.70;99.90;;;;;;4967510;28;20174;-57
2023/09/18 02:53:19;;;;;;;8.57;4.63;;;16.60;99.90;;;;;;4968165;28;20210;-58
2023/09/18 02:55:44;;;;;;;6.43;4.83;;;16.60;99.90;;;;;;4966588;28;20261;-58
2023/09/18 02:58:10;;;;;;;7.37;4.90;;;16.50;99.90;;;;;;4968553;28;20499;-59
2023/09/18 03:00:44;;;;;;;8.97;4.40;;;16.50;99.90;;;;;;4969093;28;20261;-58
2023/09/18 03:03:11;;;;;;;6.80;4.30;;;16.50;99.90;;;;;;4963718;28;20423;-58
2023/09/18 03:05:36;;;;;;;6.60;4.73;;;16.50;99.90;;;;;;4964255;28;20977;-58
2023/09/18 03:08:03;;;;;;;9.20;4.67;;;16.50;99.90;;;;;;4962828;28;20562;-57
2023/09/18 03:10:34;;;;;;;6.93;5.23;;;16.50;99.90;;;;;;4968070;28;20185;-58
2023/09/18 03:13:00;;;;;;;10.00;4.87;;;16.50;99.90;;;;;;4968608;28;21220;-58
2023/09/18 03:15:25;;;;;;;8.37;5.57;;;16.50;99.90;;;;;;4963510;28;20456;-58
2023/09/18 03:17:51;;;;;;;9.40;5.77;;;16.50;99.90;;;;;;4966693;28;20932;-58
2023/09/18 03:20:17;;;;;;;9.30;5.53;;;16.50;99.90;;;;;;4964753;28;20313;-58
2023/09/18 03:22:42;;;;;;;11.70;5.57;;;16.60;99.90;;;;;;4965281;28;20202;-58
2023/09/18 03:25:08;;;;;;;11.93;5.43;;;16.60;99.90;;;;;;4965404;28;20182;-58
2023/09/18 03:27:33;;;;;;;11.40;5.20;;;16.60;99.90;;;;;;4964746;28;20224;-59
2023/09/18 03:29:59;;;;;;;8.40;4.77;;;16.70;99.90;;;;;;4967687;28;20185;-58
2023/09/18 03:32:25;;;;;;;6.70;5.13;;;16.70;99.90;;;;;;4966169;28;20676;-57
2023/09/18 03:34:51;;;;;;;7.30;4.90;;;16.70;99.90;;;;;;4968350;28;20232;-58
2023/09/18 03:37:17;;;;;;;9.63;5.10;;;16.70;99.90;;;;;;4967874;28;20556;-58
2023/09/18 03:39:42;;;;;;;13.13;5.83;;;16.70;99.90;;;;;;4967347;28;20863;-58
2023/09/18 03:42:08;;;;;;;7.10;5.13;;;16.70;99.90;;;;;;4963062;28;20209;-58
2023/09/18 03:44:33;;;;;;;11.77;5.20;;;16.70;99.90;;;;;;4967035;28;20260;-58
2023/09/18 03:46:59;;;;;;;7.73;5.20;;;16.70;99.90;;;;;;4967005;28;20234;-58
2023/09/18 03:49:24;;;;;;;9.07;5.13;;;16.80;99.90;;;;;;4964873;28;20178;-58
2023/09/18 03:51:50;;;;;;;8.57;5.47;;;16.80;99.90;;;;;;4967331;28;20224;-58
2023/09/18 03:54:15;;;;;;;11.80;5.00;;;16.80;99.90;;;;;;4968579;28;20665;-58
2023/09/18 03:56:41;;;;;;;12.00;6.00;;;16.80;99.90;;;;;;4964297;28;20221;-57
2023/09/18 03:59:07;;;;;;;12.63;5.50;;;16.80;99.90;;;;;;4957156;28;20232;-57
2023/09/18 04:01:32;;;;;;;15.63;5.30;;;16.80;99.90;;;;;;4963476;28;20174;-57
2023/09/18 04:03:58;;;;;;;16.90;5.27;;;16.90;99.90;;;;;;4964765;28;20183;-55
2023/09/18 04:06:26;;;;;;;26.77;5.80;;;17.00;99.90;;;;;;4965968;28;20186;-57
2023/09/18 04:08:52;;;;;;;13.70;5.40;;;17.00;99.90;;;;;;4965907;28;20169;-56
2023/09/18 04:11:24;;;;;;;13.20;6.40;;;17.10;99.90;;;;;;4968718;28;20484;-57
2023/09/18 04:13:50;;;;;;;13.70;5.77;;;17.20;99.90;;;;;;4966289;28;20193;-57
2023/09/18 04:16:17;;;;;;;13.83;5.63;;;17.20;99.90;;;;;;4962158;28;20437;-57
2023/09/18 04:18:43;;;;;;;15.57;4.60;;;17.20;99.90;;;;;;4962710;28;20175;-55
2023/09/18 04:21:10;;;;;;;11.17;5.43;;;17.20;99.90;;;;;;4968433;28;20451;-56
2023/09/18 04:23:36;;;;;;;18.63;4.90;;;17.30;99.90;;;;;;4963696;28;20218;-55
2023/09/18 04:26:02;;;;;;;16.67;6.10;;;17.30;99.90;;;;;;4958616;28;20537;-59
2023/09/18 04:28:27;;;;;;;10.97;5.67;;;17.40;99.90;;;;;;4961015;28;20552;-58
2023/09/18 04:30:53;;;;;;;15.03;5.27;;;17.40;99.90;;;;;;4961066;28;20174;-58
2023/09/18 04:33:21;;;;;;;12.17;5.30;;;17.40;99.90;;;;;;4966117;28;20224;-58
2023/09/18 04:35:47;;;;;;;40.17;6.70;;;17.40;99.90;;;;;;4966430;28;20173;-58
2023/09/18 04:38:15;;;;;;;21.90;6.83;;;17.30;99.90;;;;;;4962882;28;20437;-58
2023/09/18 04:40:40;;;;;;;22.10;6.13;;;17.30;99.90;;;;;;4953289;28;20186;-58
2023/09/18 04:43:06;;;;;;;21.40;5.97;;;17.30;99.90;;;;;;4964175;28;20472;-59
2023/09/18 04:45:32;;;;;;;15.90;5.40;;;17.30;99.90;;;;;;4960615;28;20178;-60
2023/09/18 04:47:58;;;;;;;14.30;5.17;;;17.30;99.90;;;;;;4964506;28;20202;-60
2023/09/18 04:50:26;;;;;;;14.20;5.20;;;17.30;99.90;;;;;;4964393;28;21026;-59
2023/09/18 04:52:54;;;;;;;12.57;5.50;;;17.40;99.90;;;;;;4965361;28;20825;-59
2023/09/18 04:55:20;;;;;;;19.43;4.47;;;17.40;99.90;;;;;;4960701;28;20433;-60
2023/09/18 04:57:45;;;;;;;9.57;4.30;;;17.40;99.90;;;;;;4968416;28;20428;-60
2023/09/18 05:00:13;;;;;;;14.33;4.50;;;17.40;99.90;;;;;;4965764;28;20185;-59
2023/09/18 05:02:40;;;;;;;17.43;5.00;;;17.40;99.90;;;;;;4964896;28;20220;-59
2023/09/18 05:05:08;;;;;;;17.37;4.90;;;17.40;99.90;;;;;;4961181;28;20437;-59
2023/09/18 05:07:34;;;;;;;17.90;3.97;;;17.40;99.90;;;;;;4968749;28;20997;-59
2023/09/18 05:10:00;;;;;;;17.03;4.07;;;17.40;99.90;;;;;;4969826;28;20425;-60
2023/09/18 05:12:25;;;;;;;15.40;4.70;;;17.50;99.90;;;;;;4965618;28;20214;-59
2023/09/18 05:14:51;;;;;;;15.47;4.60;;;17.50;99.90;;;;;;4967916;28;20181;-59
2023/09/18 05:17:17;;;;;;;14.50;4.23;;;17.50;99.90;;;;;;4967452;28;20264;-59
2023/09/18 05:19:44;;;;;;;10.40;4.00;;;17.60;99.90;;;;;;4965558;28;20411;-60
2023/09/18 05:22:10;;;;;;;11.97;4.37;;;17.60;99.90;;;;;;4966412;28;20461;-59
2023/09/18 05:24:37;;;;;;;14.57;4.23;;;17.50;99.90;;;;;;4969060;28;20429;-60
2023/09/18 05:27:03;;;;;;;11.93;3.73;;;17.50;99.90;;;;;;4970173;28;21114;-59
2023/09/18 05:29:29;;;;;;;14.20;4.17;;;17.50;99.90;;;;;;4968640;28;20508;-59
2023/09/18 05:31:54;;;;;;;7.97;3.80;;;17.50;99.90;;;;;;4967081;28;20475;-60
2023/09/18 05:34:20;;;;;;;19.40;4.30;;;17.50;99.90;;;;;;4966529;28;20174;-59
2023/09/18 05:36:46;;;;;;;13.37;3.80;;;17.50;99.90;;;;;;4972988;28;20185;-59
2023/09/18 05:39:12;;;;;;;13.47;3.90;;;17.40;99.90;;;;;;4969577;28;20607;-59
2023/09/18 05:41:39;;;;;;;14.53;4.00;;;17.40;99.90;;;;;;4966737;28;20182;-60
2023/09/18 05:44:07;;;;;;;12.97;4.80;;;17.40;99.90;;;;;;4959964;28;20472;-59
2023/09/18 05:46:34;;;;;;;21.00;4.37;;;17.40;99.90;;;;;;4962396;28;21038;-59
2023/09/18 05:49:00;;;;;;;14.23;4.13;;;17.40;99.90;;;;;;4966591;28;20456;-59
2023/09/18 05:51:27;;;;;;;9.53;4.33;;;17.40;99.90;;;;;;4969146;28;20821;-59
2023/09/18 05:53:52;;;;;;;14.77;4.50;;;17.50;99.90;;;;;;4966979;28;20201;-59
2023/09/18 05:56:18;;;;;;;13.30;5.00;;;17.50;99.90;;;;;;4963017;28;20465;-59
2023/09/18 05:58:44;;;;;;;11.63;4.20;;;17.50;99.90;;;;;;4963786;28;20340;-60
2023/09/18 06:01:10;;;;;;;25.53;5.40;;;17.50;99.90;;;;;;4968141;28;20192;-59
2023/09/18 06:03:35;;;;;;;11.40;3.90;;;17.50;99.90;;;;;;4967494;28;20202;-59
2023/09/18 06:06:10;;;;;;;12.43;4.13;;;17.60;99.90;;;;;;4963491;28;20555;-59
2023/09/18 06:08:36;;;;;;;10.90;4.27;;;17.60;99.90;;;;;;4965995;28;20205;-59
2023/09/18 06:11:01;;;;;;;16.10;5.00;;;17.60;99.90;;;;;;4968517;28;20433;-59
2023/09/18 06:13:27;;;;;;;18.37;4.80;;;17.60;99.90;;;;;;4964985;28;20316;-59
2023/09/18 06:15:56;;;;;;;16.50;5.30;;;17.60;99.90;;;;;;4966458;28;20208;-60
2023/09/18 06:18:22;;;;;;;15.03;4.50;;;17.60;99.90;;;;;;4963685;28;20634;-59
2023/09/18 06:20:48;;;;;;;11.60;4.60;;;17.60;99.90;;;;;;4969617;28;20837;-58
2023/09/18 06:23:14;;;;;;;15.00;6.00;;;17.60;99.90;;;;;;4966532;28;20456;-61
2023/09/18 06:25:40;;;;;;;9.87;4.70;;;17.60;99.90;;;;;;4967513;28;20931;-59
2023/09/18 06:28:06;;;;;;;15.87;5.40;;;17.60;99.90;;;;;;4967249;28;20264;-59
2023/09/18 06:30:33;;;;;;;26.53;5.47;;;17.60;99.90;;;;;;4969127;28;20170;-59
2023/09/18 06:33:03;;;;;;;12.20;4.50;;;17.70;99.90;;;;;;4969326;28;20217;-59
2023/09/18 06:35:29;;;;;;;16.00;5.10;;;17.60;99.90;;;;;;4968374;28;20466;-59
2023/09/18 06:37:58;;;;;;;19.10;5.30;;;17.70;99.90;;;;;;4967440;28;20833;-59
2023/09/18 06:40:25;;;;;;;20.37;6.10;;;17.70;99.90;;;;;;4969364;28;20183;-59
2023/09/18 06:42:51;;;;;;;28.60;6.30;;;17.70;99.90;;;;;;4958008;28;20871;-59
2023/09/18 06:45:17;;;;;;;26.80;5.73;;;17.70;99.90;;;;;;4966251;28;20465;-59
2023/09/18 06:47:43;;;;;;;15.77;4.80;;;17.70;99.90;;;;;;4965524;28;20500;-60
2023/09/18 06:50:09;;;;;;;10.23;3.73;;;17.80;99.90;;;;;;4961263;28;20186;-60
2023/09/18 06:52:35;;;;;;;11.33;4.10;;;17.80;99.90;;;;;;4969894;28;20220;-60
2023/09/18 06:55:00;;;;;;;12.10;4.20;;;17.90;99.90;;;;;;4963615;28;20455;-60
2023/09/18 06:57:27;;;;;;;22.87;4.27;;;17.90;99.90;;;;;;4968335;28;20719;-59
2023/09/18 06:59:53;;;;;;;17.23;4.57;;;17.90;99.90;;;;;;4969438;28;20181;-60
2023/09/18 07:02:18;;;;;;;12.33;4.60;;;17.90;99.90;;;;;;4964890;28;20452;-60
2023/09/18 07:04:47;;;;;;;10.47;4.03;;;17.90;99.90;;;;;;4966523;28;20607;-60
2023/09/18 07:07:15;;;;;;;15.37;4.37;;;18.00;99.90;;;;;;4958753;28;20845;-60
2023/09/18 07:09:41;;;;;;;12.37;4.43;;;18.00;99.90;;;;;;4967263;28;20433;-59
2023/09/18 07:12:10;;;;;;;16.47;4.37;;;18.00;99.90;;;;;;4964591;28;20457;-59
2023/09/18 07:14:37;;;;;;;15.73;4.50;;;18.00;99.90;;;;;;4961133;28;20441;-60
2023/09/18 07:17:04;;;;;;;17.87;4.07;;;18.00;99.90;;;;;;4965501;28;20441;-60
2023/09/18 07:19:29;;;;;;;12.03;3.50;;;18.00;99.90;;;;;;4968334;28;20432;-60
2023/09/18 07:21:55;;;;;;;12.40;3.93;;;18.00;99.90;;;;;;4969692;28;20522;-60
2023/09/18 07:24:20;;;;;;;10.83;3.83;;;18.00;99.90;;;;;;4967642;28;20728;-60
2023/09/18 07:26:47;;;;;;;14.27;4.10;;;18.00;99.90;;;;;;4968153;28;20205;-59
2023/09/18 07:29:16;;;;;;;15.27;3.70;;;18.00;99.90;;;;;;4969188;28;20345;-60
2023/09/18 07:31:43;;;;;;;7.93;2.60;;;18.00;99.90;;;;;;4973872;28;20954;-59
2023/09/18 07:34:09;;;;;;;3.40;1.77;;;18.00;99.90;;;;;;4971593;28;20429;-60
2023/09/18 07:36:35;;;;;;;4.47;1.80;;;18.00;99.90;;;;;;4972320;28;20433;-59
2023/09/18 07:39:01;;;;;;;12.10;2.87;;;18.00;99.90;;;;;;4972059;28;20448;-60
2023/09/18 07:41:26;;;;;;;3.67;1.50;;;18.10;99.90;;;;;;4971562;28;20487;-60
2023/09/18 07:43:52;;;;;;;4.83;1.60;;;18.10;99.90;;;;;;4970021;28;20193;-59
2023/09/18 07:46:18;;;;;;;3.93;1.40;;;18.10;99.90;;;;;;4971807;28;20178;-60
2023/09/18 07:48:44;;;;;;;2.37;1.30;;;18.20;99.90;;;;;;4971468;28;20301;-60
2023/09/18 07:51:13;;;;;;;5.90;1.90;;;18.10;99.90;;;;;;4970393;28;20508;-59
2023/09/18 07:53:39;;;;;;;11.27;1.90;;;18.10;99.90;;;;;;4966588;28;20208;-60
2023/09/18 07:56:05;;;;;;;5.10;1.77;;;18.00;99.90;;;;;;4969336;28;20572;-59
2023/09/18 07:58:33;;;;;;;5.33;1.70;;;17.90;99.90;;;;;;4971311;28;20516;-60
2023/09/18 08:00:59;;;;;;;4.50;1.73;;;17.90;99.90;;;;;;4969987;28;20269;-60
2023/09/18 08:03:25;;;;;;;4.90;1.50;;;17.70;99.90;;;;;;4969505;28;20544;-59
2023/09/18 08:05:52;;;;;;;6.73;1.50;;;17.60;99.90;;;;;;4965858;28;20256;-60
2023/09/18 08:08:23;;;;;;;2.90;1.30;;;17.60;99.90;;;;;;4965728;28;20461;-60
2023/09/18 08:10:50;;;;;;;2.93;1.53;;;17.40;99.90;;;;;;4964084;28;20466;-60
2023/09/18 08:13:16;;;;;;;5.13;1.90;;;17.40;99.90;;;;;;4960868;28;20541;-60
2023/09/18 08:15:43;;;;;;;1.77;1.40;;;17.40;99.90;;;;;;4970536;28;20424;-60
2023/09/18 08:18:10;;;;;;;8.30;1.73;;;17.40;99.90;;;;;;4967377;28;20521;-59
2023/09/18 08:20:37;;;;;;;4.30;1.47;;;17.40;99.90;;;;;;4970510;28;20441;-60
2023/09/18 08:23:05;;;;;;;2.30;1.77;;;17.50;99.90;;;;;;4970546;28;20484;-60
2023/09/18 08:25:31;;;;;;;5.47;1.90;;;17.50;99.90;;;;;;4964960;28;20425;-60
2023/09/18 08:27:56;;;;;;;10.10;1.50;;;17.50;99.90;;;;;;4970198;28;20465;-60
2023/09/18 08:30:22;;;;;;;3.97;1.50;;;17.50;99.90;;;;;;4965957;28;20489;-59
2023/09/18 08:32:48;;;;;;;4.20;1.43;;;17.50;99.90;;;;;;4964174;28;20207;-60
2023/09/18 08:35:13;;;;;;;4.00;1.43;;;17.50;99.90;;;;;;4973444;28;20746;-60
2023/09/18 08:37:42;;;;;;;7.20;1.33;;;17.50;99.90;;;;;;4970381;28;20193;-60
2023/09/18 08:40:13;;;;;;;6.73;2.00;;;17.50;99.90;;;;;;4967064;28;20182;-60
2023/09/18 08:42:44;;;;;;;4.20;1.50;;;17.50;99.90;;;;;;4970795;28;20456;-59
2023/09/18 08:45:11;;;;;;;4.23;1.40;;;17.50;99.90;;;;;;4971350;28;20421;-59
2023/09/18 08:47:40;;;;;;;6.17;1.90;;;17.50;99.90;;;;;;4965685;28;20461;-60
2023/09/18 08:50:08;;;;;;;3.00;2.00;;;17.40;99.90;;;;;;4967629;28;20444;-59
2023/09/18 08:52:35;;;;;;;7.33;1.77;;;17.40;99.90;;;;;;4969959;28;20461;-60
2023/09/18 08:55:02;;;;;;;5.97;1.90;;;17.40;99.90;;;;;;4969179;28;20437;-60
2023/09/18 08:57:30;;;;;;;3.77;1.77;;;17.40;99.90;;;;;;4969995;28;20437;-60
2023/09/18 08:59:57;;;;;;;2.80;1.87;;;17.30;99.90;;;;;;4971039;28;20484;-59
2023/09/18 09:02:23;;;;;;;7.80;2.00;;;17.30;99.90;;;;;;4963548;28;20832;-59
2023/09/18 09:04:49;;;;;;;8.33;2.00;;;17.30;99.90;;;;;;4954674;28;20449;-60
2023/09/18 09:07:15;;;;;;;4.40;1.93;;;17.30;99.90;;;;;;4955145;28;20228;-60
2023/09/18 09:09:41;;;;;;;7.30;2.43;;;17.30;99.90;;;;;;4965361;28;20434;-60
2023/09/18 09:12:07;;;;;;;3.90;1.73;;;17.30;99.90;;;;;;4962821;28;20218;-59
2023/09/18 09:14:33;;;;;;;5.60;1.70;;;17.30;99.90;;;;;;4960799;28;20865;-60
2023/09/18 09:16:59;;;;;;;3.20;2.03;;;17.30;99.90;;;;;;4963218;28;20445;-59
2023/09/18 09:19:35;;;;;;;4.43;1.90;;;17.30;99.90;;;;;;4965035;28;20719;-59
2023/09/18 09:22:01;;;;;;;5.40;3.00;;;17.30;99.90;;;;;;4961053;28;20208;-59
2023/09/18 09:24:41;;;;;;;5.40;2.80;;;17.30;99.90;;;;;;4962586;28;20456;-59
2023/09/18 09:27:08;;;;;;;3.07;2.20;;;17.30;99.90;;;;;;4962844;28;20476;-59
2023/09/18 09:29:34;;;;;;;4.90;2.63;;;17.30;99.90;;;;;;4965355;28;20550;-59
2023/09/18 09:32:16;;;;;;;3.80;1.60;;;17.30;99.90;;;;;;4968479;28;20480;-59
2023/09/18 09:34:43;;;;;;;3.80;2.00;;;17.40;99.90;;;;;;4967822;28;20465;-59
2023/09/18 09:37:10;;;;;;;4.30;2.03;;;17.40;99.90;;;;;;4968226;28;20448;-59
2023/09/18 09:39:50;;;;;;;4.83;2.10;;;17.40;99.90;;;;;;4965191;28;20456;-59
2023/09/18 09:42:28;;;;;;;7.40;1.70;;;17.50;99.90;;;;;;4969146;28;20459;-59
2023/09/18 09:45:12;;;;;;;4.53;2.10;;;17.40;99.90;;;;;;4964639;28;20504;-59
2023/09/18 09:47:38;;;;;;;5.93;2.10;;;17.50;99.90;;;;;;4963716;28;20504;-59
2023/09/18 09:50:19;;;;;;;3.10;1.50;;;17.50;99.90;;;;;;4967958;28;20960;-58
2023/09/18 09:52:50;;;;;;;4.67;1.60;;;17.50;99.90;;;;;;4965766;28;20459;-59
2023/09/18 09:55:29;;;;;;;5.27;2.90;;;17.50;99.90;;;;;;4967165;28;20959;-59
2023/09/18 09:57:59;;;;;;;2.87;1.77;;;17.40;99.90;;;;;;4963096;28;20433;-60
2023/09/18 10:00:51;;;;;;;3.20;1.80;;;17.40;99.90;;;;;;4966392;28;20449;-59
2023/09/18 10:03:19;;;;;;;6.20;2.00;;;17.50;99.90;;;;;;4968127;28;20468;-59
2023/09/18 10:05:46;;;;;;;2.77;1.83;;;17.50;99.90;;;;;;4962867;28;20433;-59
2023/09/18 10:08:25;;;;;;;2.70;1.60;;;17.50;99.90;;;;;;4965258;28;20472;-58
2023/09/18 10:10:53;;;;;;;6.10;2.17;;;17.50;99.90;;;;;;4961090;28;20473;-59
2023/09/18 10:13:24;;;;;;;5.60;2.33;;;17.50;99.90;;;;;;4963241;28;20456;-59
2023/09/18 10:15:51;;;;;;;6.30;3.10;;;17.50;99.90;;;;;;4966385;28;20429;-59
2023/09/18 10:18:28;;;;;;;2.13;1.80;;;17.60;99.90;;;;;;4966923;28;20807;-59
2023/09/18 10:21:38;;;;;;;4.60;2.00;;;17.60;99.90;;;;;;4966846;28;20480;-59
2023/09/18 10:24:22;;;;;;;3.47;2.30;;;17.60;99.90;;;;;;4962865;28;20870;-60
2023/09/18 10:26:59;;;;;;;10.30;1.97;;;17.60;99.90;;;;;;4959713;28;20863;-59
2023/09/18 10:29:25;;;;;;;1.60;1.50;;;17.70;99.90;;;;;;4964052;28;20459;-59
2023/09/18 10:31:53;;;;;;;3.90;2.20;;;17.70;99.90;;;;;;4966149;28;20465;-59
2023/09/18 10:34:20;;;;;;;3.70;1.90;;;17.70;99.90;;;;;;4966807;28;20437;-59
2023/09/18 10:36:54;;;;;;;5.23;1.90;;;17.70;99.90;;;;;;4970228;28;20425;-59
2023/09/18 10:39:23;;;;;;;4.37;1.70;;;17.70;99.90;;;;;;4965105;28;20433;-59
2023/09/18 10:41:54;;;;;;;1.87;1.60;;;17.60;99.90;;;;;;4967842;28;20433;-59
2023/09/18 10:44:20;;;;;;;4.93;2.03;;;17.60;99.90;;;;;;4981385;28;20444;-60
2023/09/18 10:46:47;;;;;;;2.43;1.70;;;17.60;99.90;;;;;;4965618;28;20437;-59
2023/09/18 10:49:17;;;;;;;5.60;2.00;;;17.60;99.90;;;;;;4948167;28;20456;-60
2023/09/18 10:51:43;;;;;;;2.97;1.70;;;17.60;99.90;;;;;;4965527;28;20434;-59
2023/09/18 10:54:11;;;;;;;3.77;1.97;;;17.50;99.90;;;;;;4958866;28;20461;-60
2023/09/18 10:56:37;;;;;;;5.20;2.33;;;17.50;99.90;;;;;;4951829;28;20441;-59
2023/09/18 10:59:07;;;;;;;2.40;1.87;;;17.50;99.90;;;;;;4978358;28;22414;-60
2023/09/18 11:01:35;;;;;;;8.03;2.40;;;17.50;99.90;;;;;;4964396;28;20794;-59
2023/09/18 11:04:03;;;;;;;6.10;2.80;;;17.40;99.90;;;;;;4963968;28;20546;-59
2023/09/18 11:06:29;;;;;;;6.07;2.70;;;17.40;99.90;;;;;;4962135;28;20841;-59
2023/09/18 11:09:09;;;;;;;3.83;2.37;;;17.40;99.90;;;;;;4963696;28;20469;-59
2023/09/18 11:11:35;;;;;;;6.43;2.73;;;17.50;99.90;;;;;;4968268;28;20795;-59
2023/09/18 11:14:01;;;;;;;3.13;2.33;;;17.50;99.90;;;;;;4966338;28;20444;-59
2023/09/18 11:16:26;;;;;;;5.67;2.60;;;17.40;99.90;;;;;;4971665;28;20928;-59
2023/09/18 11:19:01;;;;;;;3.30;2.20;;;17.40;99.90;;;;;;4967109;28;20429;-59
2023/09/18 11:21:29;;;;;;;10.17;2.57;;;17.40;99.90;;;;;;4969865;28;20661;-59
2023/09/18 11:24:22;;;;;;;3.90;2.33;;;17.40;99.90;;;;;;4969842;28;20544;-60
2023/09/18 11:26:51;;;;;;;5.60;2.77;;;17.40;99.90;;;;;;4969061;28;20429;-60
2023/09/18 11:29:22;;;;;;;7.73;2.70;;;17.40;99.90;;;;;;4970022;28;20433;-59
2023/09/18 11:31:56;;;;;;;5.40;2.37;;;17.40;99.90;;;;;;4960464;28;21108;-58
2023/09/18 11:34:34;;;;;;;4.67;2.60;;;17.40;99.90;;;;;;4965775;28;20468;-59
2023/09/18 11:37:04;;;;;;;5.87;2.70;;;17.50;99.90;;;;;;4967200;28;20479;-59
2023/09/18 11:39:34;;;;;;;5.40;1.80;;;17.60;99.90;;;;;;4968282;28;20429;-60
2023/09/18 11:42:22;;;;;;;6.40;2.27;;;17.60;99.90;;;;;;4964764;28;20464;-60
2023/09/18 11:44:49;;;;;;;2.90;1.93;;;17.70;99.90;;;;;;4969899;28;20873;-60
2023/09/18 11:47:21;;;;;;;5.20;2.43;;;17.80;99.90;;;;;;4968578;28;20479;-60
2023/09/18 11:49:58;;;;;;;5.00;2.10;;;18.00;99.90;;;;;;4967144;28;20489;-59
2023/09/18 11:52:31;;;;;;;3.53;2.17;;;18.00;99.90;;;;;;4964825;28;20534;-60
2023/09/18 11:54:59;;;;;;;3.30;1.93;;;18.00;99.90;;;;;;4964735;28;20459;-60
2023/09/18 11:57:25;;;;;;;1.90;1.80;;;17.90;99.90;;;;;;4960458;28;21120;-60
2023/09/18 11:59:51;;;;;;;3.80;1.83;;;17.90;99.90;;;;;;4969420;28;20556;-60
2023/09/18 12:02:38;;;;;;;2.33;2.03;;;17.80;99.90;;;;;;4968900;28;20198;-60
2023/09/18 12:05:18;;;;;;;7.20;1.83;;;17.80;99.90;;;;;;4966266;28;20433;-59
2023/09/18 12:07:45;;;;;;;4.90;1.73;;;17.70;99.90;;;;;;4961447;28;20472;-60
2023/09/18 12:10:20;;;;;;;3.10;1.70;;;17.70;99.90;;;;;;4963063;28;20972;-59
2023/09/18 12:12:47;;;;;;;1.90;1.70;;;17.70;99.90;;;;;;4962025;28;20519;-59
2023/09/18 12:15:18;;;;;;;2.00;1.80;;;17.70;99.90;;;;;;4968499;28;20496;-60
2023/09/18 12:17:43;;;;;;;9.60;2.20;;;17.70;99.90;;;;;;4970455;28;20480;-60
2023/09/18 12:20:19;;;;;;;5.10;1.70;;;17.70;99.90;;;;;;4970293;28;20452;-60
2023/09/18 12:22:48;;;;;;;4.93;2.07;;;17.70;99.90;;;;;;4967337;28;20270;-59
2023/09/18 12:25:15;;;;;;;7.27;2.10;;;17.70;99.90;;;;;;4968127;28;20432;-59
2023/09/18 12:27:41;;;;;;;3.43;1.73;;;17.70;99.90;;;;;;4969557;28;20492;-60
2023/09/18 12:30:08;;;;;;;4.73;2.10;;;17.80;99.90;;;;;;4964302;28;20471;-60
2023/09/18 12:32:37;;;;;;;5.67;1.57;;;17.80;99.90;;;;;;4965239;28;20448;-60
2023/09/18 12:35:06;;;;;;;4.93;2.10;;;17.90;99.90;;;;;;4971679;28;20436;-59
2023/09/18 12:37:38;;;;;;;5.97;2.27;;;18.00;99.90;;;;;;4969808;28;20523;-59
2023/09/18 12:40:10;;;;;;;3.17;2.30;;;18.00;99.90;;;;;;4970781;28;20433;-59
2023/09/18 12:42:40;;;;;;;6.23;2.33;;;18.00;99.90;;;;;;4960867;28;20457;-60
2023/09/18 12:45:07;;;;;;;3.97;2.30;;;18.00;99.90;;;;;;4968952;28;20471;-59
2023/09/18 12:47:33;;;;;;;2.43;2.20;;;18.00;99.90;;;;;;4967782;28;20469;-59